• Join FlightAware (Why Join?)
  • Login
  • US Flag 
09:59PM EDT


 

Airport Tracker/Info


-or-


 

Live Flight TrackerFlight Track Log ✈ UAL252 ✈ 04-May-2013 ✈ KORD - CYVR

Flight Track Log - Related Links

Times and Time Zones

All times are in EDT time to prevent confusion due to time zone crossing. See the UAL252 flight status page for this flight to view local times or setup timezone preferences in your user account.

Time Position Orientation Groundspeed Altitude Reporting Facility
EDT Latitude Longitude Course Direction KTS MPH feet Rate Location/Type
10:57AM 42.0333 -87.9667 270° West 211 243 3,100  Level Chicago TRACON
10:58AM 42.0833 -88.0167 323° Northwest 260 299 5,400 2,700 Climbing Chicago TRACON
10:59AM 41.9667 -88.3924 270° West  Level FlightAware Approximate
10:59AM 42.1306 -88.0581 327° Northwest 275 316 7,500  Level Chicago Center
11:00AM 41.9668 -88.5565 270° West  Level FlightAware Approximate
11:00AM 42.1536 -88.1650 286° West 306 352 11,100  Level Chicago Center
11:01AM 41.9667 -88.7207 270° West  Level FlightAware Approximate
11:01AM 42.1525 -88.2825 269° West 312 359 13,100  Level Chicago Center
11:02AM 41.9668 -88.8848 270° West  Level FlightAware Approximate
11:02AM 42.1411 -88.4103 263° West 343 395 14,700  Level Chicago Center
11:03AM 42.1303 -88.5694 265° West 356 410 17,400 2,340 Climbing Chicago Center
11:04AM 42.1128 -88.7108 261° West 379 436 19,600 2,220 Climbing Chicago Center
11:05AM 42.0947 -88.8686 261° West 392 451 22,000 2,040 Climbing Chicago Center
11:06AM 42.0769 -89.0211 261° West 406 467 23,800 1,800 Climbing Chicago Center
11:07AM 42.0714 -89.1792 267° West 426 490 25,800 1,740 Climbing Chicago Center
11:08AM 42.0753 -89.3453 272° West 439 505 27,400 1,560 Climbing Chicago Center
11:09AM 42.0786 -89.5106 272° West 441 507 29,000 1,440 Climbing Chicago Center
11:10AM 42.0842 -89.6839 273° West 459 528 30,400 1,260 Climbing Chicago Center
11:11AM 42.0889 -89.8556 272° West 459 528 31,700 1,260 Climbing Chicago Center
11:12AM 42.0947 -90.0217 273° West 468 539 33,100 1,260 Climbing Chicago Center
11:13AM 42.1317 -90.2250 284° West 487 560 34,400 1,200 Climbing Chicago Center
11:14AM 42.2022 -90.3775 302° West 483 556 35,600 780 Climbing Chicago Center
11:15AM 42.2731 -90.5311 302° West 486 559 36,000 780 Climbing Chicago Center
11:16AM 42.3436 -90.6853 302° West 486 559 37,200 960 Climbing Chicago Center
11:17AM 42.4142 -90.8369 302° West 481 554 38,000 360 Climbing Chicago Center
11:18AM 42.4836 -90.9892 302° West 479 551 38,000  Level Chicago Center
11:19AM 42.5661 -91.1719 302° West 478 550 38,000  Level Chicago Center
11:20AM 42.6347 -91.3247 301° West 478 550 38,000  Level Chicago Center
11:21AM 42.6744 -91.4161 301° West 478 550 38,000  Level Minneapolis Center
11:22AM 42.7539 -91.5933 301° West 478 550 38,000  Level Minneapolis Center
11:23AM 42.8183 -91.7372 301° West 478 550 38,000  Level Minneapolis Center
11:24AM 42.8850 -91.8908 301° West 476 548 38,000  Level Minneapolis Center
11:25AM 42.9519 -92.0442 301° West 476 548 38,000  Level Minneapolis Center
11:26AM 43.0189 -92.1944 301° West 468 539 38,000  Level Minneapolis Center
11:27AM 43.0986 -92.3781 301° West 471 542 38,000  Level Minneapolis Center
11:28AM 43.1639 -92.5328 300° West 474 545 38,000  Level Minneapolis Center
11:29AM 43.2303 -92.6847 301° West 469 540 38,000  Level Minneapolis Center
11:30AM 43.2942 -92.8356 300° West 463 533 38,000  Level Minneapolis Center
11:31AM 43.3597 -92.9889 300° West 465 535 38,000  Level Minneapolis Center
11:32AM 43.4244 -93.1414 300° West 466 536 38,000  Level Minneapolis Center
11:33AM 43.4894 -93.2944 300° West 467 537 38,000  Level Minneapolis Center
11:34AM 43.5622 -93.4700 300° West 465 535 38,000  Level Minneapolis Center
11:35AM 43.6278 -93.6247 300° West 467 537 38,000  Level Minneapolis Center
11:36AM 43.6917 -93.7783 300° West 463 533 38,000  Level Minneapolis Center
11:37AM 43.7547 -93.9333 299° West 463 533 38,000  Level Minneapolis Center
11:38AM 43.8189 -94.0881 300° West 464 534 38,000  Level Minneapolis Center
11:39AM 43.8933 -94.2725 299° West 459 528 38,000  Level Minneapolis Center
11:40AM 43.9575 -94.4242 300° West 456 525 38,000  Level Minneapolis Center
11:41AM 44.0200 -94.5778 300° West 458 527 38,000  Level Minneapolis Center
11:42AM 44.0825 -94.7331 299° West 460 529 38,000  Level Minneapolis Center
11:43AM 44.1436 -94.8883 299° West 460 529 38,000  Level Minneapolis Center
11:44AM 44.2044 -95.0431 299° West 459 528 38,000  Level Minneapolis Center
11:45AM 44.2647 -95.1964 299° West 457 526 38,000  Level Minneapolis Center
11:46AM 44.3242 -95.3492 299° West 453 521 38,000  Level Minneapolis Center
11:48AM 44.3947 -95.5331 298° West 450 518 38,000  Level Minneapolis Center
11:49AM 44.4547 -95.6864 299° West 453 521 38,000  Level Minneapolis Center
11:50AM 44.5136 -95.8389 298° West 452 520 38,000  Level Minneapolis Center
11:51AM 44.5717 -95.9922 298° West 451 519 38,000  Level Minneapolis Center
11:52AM 44.6303 -96.1442 299° West 449 517 38,000  Level Minneapolis Center
11:53AM 44.6869 -96.2969 298° West 446 513 38,000  Level Minneapolis Center
11:54AM 44.7567 -96.4817 298° West 449 517 38,000  Level Minneapolis Center
11:55AM 44.8150 -96.6358 298° West 450 518 38,000  Level Minneapolis Center
11:56AM 44.8717 -96.7911 297° West 449 517 38,000  Level Minneapolis Center
11:57AM 44.9286 -96.9447 298° West 445 512 38,000  Level Minneapolis Center
11:58AM 44.9856 -97.0981 298° West 443 510 38,000  Level Minneapolis Center
11:59AM 45.0433 -97.2517 298° West 444 511 38,000  Level Minneapolis Center
12:01PM 45.1675 -97.5939 297° West 448 516 38,000  Level Minneapolis Center
12:02PM 45.2244 -97.7500 297° West 449 517 38,000  Level Minneapolis Center
12:03PM 45.2806 -97.9086 297° West 451 519 38,000  Level Minneapolis Center
12:04PM 45.3358 -98.0664 297° West 454 522 38,000  Level Minneapolis Center
12:05PM 45.3914 -98.2256 296° West 452 520 38,000  Level Minneapolis Center
12:06PM 45.4486 -98.3883 297° West 457 526 38,000  Level Minneapolis Center
12:07PM 45.5047 -98.5519 296° West 461 531 38,100  Climbing Minneapolis Center
12:08PM 45.5619 -98.7131 297° West 459 528 38,000 -60 Descending Minneapolis Center
12:09PM 45.6286 -98.9025 297° West 452 520 38,000 -60 Level Minneapolis Center
12:10PM 45.6811 -99.0583 296° West 443 510 37,900  Descending Minneapolis Center
12:11PM 45.7344 -99.2147 296° West 441 507 38,000  Climbing Minneapolis Center
12:12PM 45.7867 -99.3711 296° West 438 504 38,000  Level Minneapolis Center
12:13PM 45.8397 -99.5289 296° West 440 506 38,000  Level Minneapolis Center
12:14PM 45.8928 -99.6878 296° West 443 510 38,100  Climbing Minneapolis Center
12:15PM 45.9456 -99.8458 296° West 442 509 38,000 -60 Descending Minneapolis Center
12:16PM 46.0078 -100.0372 295° West 442 509 38,000  Level Minneapolis Center
12:17PM 46.0600 -100.2003 295° West 447 514 38,000  Level Minneapolis Center
12:18PM 46.1111 -100.3583 295° West 442 509 38,000  Level Minneapolis Center
12:19PM 46.1614 -100.5147 295° West 437 503 38,000  Level Minneapolis Center
12:20PM 46.2136 -100.6731 296° West 436 502 38,000  Level Minneapolis Center
12:21PM 46.2636 -100.8319 295° West 436 502 38,000  Level Minneapolis Center
12:22PM 46.3150 -100.9914 295° West 437 503 38,000  Level Minneapolis Center
12:23PM 46.3750 -101.1831 294° West 437 503 38,000  Level Minneapolis Center
12:24PM 46.4247 -101.3461 294° West 440 506 38,000  Level Minneapolis Center
12:25PM 46.4764 -101.5064 295° West 440 506 38,000 -60 Level Minneapolis Center
12:26PM 46.5203 -101.6517 294° West 440 506 37,900  Descending Minneapolis Center
12:28PM 46.5725 -101.8136 295° West 442 509 38,000  Climbing Minneapolis Center
12:29PM 46.6344 -102.0092 295° West 444 511 38,000  Level Minneapolis Center
12:30PM 46.6836 -102.1728 294° West 444 511 38,000  Level Minneapolis Center
12:31PM 46.7325 -102.3350 294° West 440 506 38,000 -60 Level Minneapolis Center
12:32PM 46.7819 -102.4958 294° West 438 504 37,900 -60 Descending Minneapolis Center
12:33PM 46.8322 -102.6522 295° West 431 496 37,900  Level Minneapolis Center
12:34PM 46.8797 -102.8186 293° West 438 504 37,900  Level Minneapolis Center
12:35PM 46.9394 -102.9761 299° West 443 510 38,000  Climbing Minneapolis Center
12:36PM 46.9986 -103.1339 299° West 443 510 38,000  Level Minneapolis Center
12:37PM 47.0689 -103.3256 298° West 444 511 38,000  Level Minneapolis Center
12:38PM 47.1261 -103.4853 298° West 443 510 38,000  Level Minneapolis Center
12:39PM 47.1833 -103.6453 298° West 443 510 38,000  Level Salt Lake Center
12:40PM 47.2400 -103.8053 298° West 441 507 38,000 -60 Level Salt Lake Center
12:41PM 47.2958 -103.9625 298° West 437 503 37,900 -60 Descending Salt Lake Center
12:42PM 47.3522 -104.1178 298° West 432 497 37,900  Level Salt Lake Center
12:43PM 47.4089 -104.2764 298° West 433 498 37,900  Level Salt Lake Center
12:44PM 47.4653 -104.4353 298° West 434 499 37,900  Level Salt Lake Center
12:45PM 47.5281 -104.6233 296° West 429 494 38,000  Climbing Salt Lake Center
12:46PM 47.5833 -104.7800 298° West 427 491 38,000  Level Salt Lake Center
12:47PM 47.6392 -104.9381 298° West 431 496 38,000 -60 Level Salt Lake Center
12:48PM 47.6939 -105.0953 297° West 430 495 37,900 -60 Descending Salt Lake Center
12:49PM 47.7481 -105.2525 297° West 429 494 37,900  Level Salt Lake Center
12:50PM 47.8008 -105.4114 296° West 429 494 38,000  Climbing Salt Lake Center
12:51PM 47.8553 -105.5706 297° West 431 496 38,000  Level Salt Lake Center
12:52PM 47.9081 -105.7286 297° West 429 494 38,000 -60 Level Salt Lake Center
12:53PM 47.9614 -105.8906 296° West 433 498 37,900  Descending Salt Lake Center
12:54PM 48.0228 -106.0861 295° West 436 502 38,000  Climbing Salt Lake Center
12:55PM 48.0667 -106.2550 291° West 437 503 38,000  Level Salt Lake Center
12:56PM 48.1083 -106.4244 290° West 437 503 38,000  Level Salt Lake Center
12:57PM 48.1514 -106.5931 291° West 436 502 38,000 -60 Level Salt Lake Center
12:58PM 48.1950 -106.7636 291° West 438 504 37,900  Descending Salt Lake Center
12:59PM 48.2375 -106.9344 291° West 439 505 38,000  Climbing Salt Lake Center
01:00PM 48.2822 -107.1036 292° West 438 504 38,000 -60 Level Salt Lake Center
01:01PM 48.3211 -107.2739 289° West 435 501 37,900  Descending Salt Lake Center
01:02PM 48.3719 -107.4683 292° West 437 503 38,000  Climbing Salt Lake Center
01:03PM 48.4131 -107.6383 290° West 436 502 38,000 -60 Level Salt Lake Center
01:04PM 48.4542 -107.8089 290° West 435 501 37,900  Descending Salt Lake Center
01:05PM 48.4947 -107.9789 290° West 435 501 38,000  Climbing Salt Lake Center
01:06PM 48.5219 -108.1567 283° West 437 503 38,000 -60 Level Salt Lake Center
01:08PM 48.5442 -108.3369 281° West 438 504 37,900 -60 Descending Salt Lake Center
01:09PM 48.5686 -108.5183 282° West 442 509 37,900  Level Salt Lake Center
01:10PM 48.5975 -108.7375 281° West 444 511 38,000  Climbing Salt Lake Center
01:11PM 48.6217 -108.9222 281° West 449 517 38,000  Level Salt Lake Center
01:12PM 48.6458 -109.1050 281° West 447 514 38,000 -60 Level Salt Lake Center
01:13PM 48.6703 -109.2914 281° West 450 518 37,900 -60 Descending Salt Lake Center
01:14PM 48.6925 -109.4758 280° West 450 518 37,900  Level Salt Lake Center
01:15PM 48.7131 -109.6544 280° West 443 510 38,000  Climbing Salt Lake Center
01:16PM 48.7367 -109.8403 281° West 447 514 37,900 -60 Descending Salt Lake Center
01:17PM 48.7572 -110.0219 280° West 444 511 37,900  Level Salt Lake Center
01:18PM 48.7817 -110.2425 280° West 444 511 37,900  Level Salt Lake Center
01:19PM 48.8033 -110.4300 280° West 450 518 38,000  Climbing Salt Lake Center
01:20PM 48.8256 -110.6189 280° West 456 525 38,000  Level Salt Lake Center
01:21PM 48.8461 -110.8106 279° West 460 529 38,000  Level Salt Lake Center
01:22PM 48.8664 -111.0008 279° West 459 528 38,000 -60 Level Salt Lake Center
01:23PM 48.8878 -111.1878 280° West 456 525 37,900 -60 Descending Salt Lake Center
01:24PM 48.9072 -111.3753 279° West 455 524 37,900  Level Salt Lake Center
01:25PM 48.9267 -111.5608 279° West 450 518 37,900  Level Salt Lake Center
01:26PM 48.9494 -111.7864 279° West 452 520 37,900  Level Salt Lake Center
01:27PM 48.9681 -111.9753 279° West 453 521 37,900  Level Salt Lake Center
01:28PM 48.9900 -112.1644 280° West 455 524 38,000  Climbing Salt Lake Center
01:29PM 48.9833 -112.3333 267° West 450 518 38,000  Level Edmonton Center
01:30PM 49.0167 -112.5167 286° West 450 518 38,000  Level Edmonton Center
01:31PM 49.0333 -112.7000 278° West 460 529 38,000  Level Edmonton Center
01:32PM 49.0833 -112.8833 293° West 450 518 38,000  Level Edmonton Center
01:33PM 49.1000 -113.0667 278° West 450 518 38,000  Level Edmonton Center
01:34PM 49.1333 -113.2500 286° West 450 518 38,000  Level Edmonton Center
01:35PM 49.1500 -113.4333 278° West 450 518 38,000  Level Edmonton Center
01:36PM 49.1833 -113.6333 284° West 450 518 38,000  Level Edmonton Center
01:37PM 49.2000 -113.8167 278° West 450 518 38,000  Level Edmonton Center
01:38PM 49.2333 -114.0000 286° West 450 518 38,000  Level Edmonton Center
01:39PM 49.2667 -114.1833 286° West 440 506 38,000  Level Edmonton Center
01:40PM 49.3000 -114.3833 284° West 450 518 38,000  Level Edmonton Center
01:41PM 49.3333 -114.5667 286° West 450 518 38,000  Level Edmonton Center
01:42PM 49.3500 -114.7500 278° West 450 518 38,000 -60 Level Edmonton Center
01:43PM 49.3833 -114.9667 283° West 450 518 37,900 -1,020 Descending Edmonton Center
01:44PM 49.4000 -115.1333 279° West 460 529 36,000 -1,680 Descending Edmonton Center
01:45PM 49.4000 -115.3333 270° West 450 518 34,600 -1,020 Descending Edmonton Center
01:46PM 49.4000 -115.5167 270° West 430 495 34,000 -300 Descending Edmonton Center
01:47PM 49.4167 -115.7000 278° West 440 506 34,000  Level Edmonton Center
01:47PM 49.4333 -115.7333 308° West 440 506 34,000  Level Vancouver Center
01:48PM 49.4500 -115.9000 279° West 440 506 34,000  Level Vancouver Center
01:49PM 49.4500 -116.1167 270° West 450 518 34,000  Level Vancouver Center
01:50PM 49.4500 -116.3000 270° West 460 529 34,000  Level Vancouver Center
01:51PM 49.4667 -116.5000 277° West 460 529 34,000  Level Vancouver Center
01:52PM 49.4667 -116.7000 270° West 460 529 34,000  Level Vancouver Center
01:53PM 49.4833 -116.8833 278° West 450 518 34,000  Level Vancouver Center
01:54PM 49.4667 -117.0833 263° West 450 518 34,000  Level Vancouver Center
01:55PM 49.4833 -117.3000 277° West 460 529 34,000  Level Vancouver Center
01:56PM 49.5000 -117.4667 279° West 460 529 34,000  Level Vancouver Center
01:57PM 49.4833 -117.6500 262° West 450 518 34,000  Level Vancouver Center
01:58PM 49.5000 -117.8500 277° West 450 518 34,000  Level Vancouver Center
01:59PM 49.5167 -118.0333 278° West 450 518 34,000  Level Vancouver Center
02:00PM 49.5000 -118.2500 263° West 450 518 34,000  Level Vancouver Center
02:01PM 49.5167 -118.4500 277° West 460 529 34,000  Level Vancouver Center
02:02PM 49.5000 -118.6500 263° West 450 518 34,000  Level Vancouver Center
02:03PM 49.5167 -118.8333 278° West 450 518 34,000  Level Vancouver Center
02:04PM 49.5167 -119.0167 270° West 450 518 34,000  Level Vancouver Center
02:05PM 49.5167 -119.2167 270° West 450 518 34,000  Level Vancouver Center
02:06PM 49.5167 -119.4000 270° West 460 529 34,000  Level Vancouver Center
02:07PM 49.5167 -119.6000 270° West 450 518 34,000  Level Vancouver Center
02:08PM 49.5167 -119.8167 270° West 450 518 34,000  Level Vancouver Center
02:09PM 49.5333 -120.0000 278° West 450 518 34,000  Level Vancouver Center
02:10PM 49.5167 -120.2000 263° West 450 518 34,000 -300 Level Vancouver Center
02:11PM 49.5167 -120.3833 270° West 450 518 33,500 -1,080 Descending Vancouver Center
02:12PM 49.5333 -120.5833 277° West 450 518 31,900 -2,400 Descending Vancouver Center
02:13PM 49.5167 -120.7667 262° West 450 518 28,700 -3,000 Descending Vancouver Center
02:14PM 49.5000 -120.9667 263° West 470 541 26,000 -2,580 Descending Vancouver Center
02:15PM 49.5000 -121.1833 270° West 450 518 23,600 -2,340 Descending Vancouver Center
02:16PM 49.4833 -121.3333 260° West 440 506 21,400 -2,280 Descending Vancouver Center
02:17PM 49.4667 -121.5167 262° West 420 483 19,100 -2,100 Descending Vancouver Center
02:18PM 49.4333 -121.7000 254° West 400 460 17,200 -1,980 Descending Vancouver Center
02:19PM 49.4333 -121.8500 270° West 390 449 15,200 -2,100 Descending Vancouver Center
02:20PM 49.4000 -122.0000 251° West 370 426 13,100 -1,980 Descending Vancouver Center
02:21PM 49.4167 -122.1500 280° West 350 403 11,300 -1,500 Descending Vancouver Center
02:22PM 49.3833 -122.2833 249° West 330 380 10,200 -1,260 Descending Vancouver Center
02:23PM 49.3333 -122.3833 233° Southwest 310 357 8,800 -1,620 Descending Vancouver Center
02:24PM 49.2833 -122.5000 237° Southwest 310 357 7,000 -1,260 Descending Vancouver Center
02:25PM 49.2333 -122.6000 233° Southwest 290 334 6,300 -900 Descending Vancouver Center
02:26PM 49.2000 -122.7000 243° Southwest 270 311 5,300 -840 Descending Vancouver Center
02:27PM 49.1500 -122.7833 227° Southwest 250 288 4,700 -840 Descending Vancouver Center
02:28PM 49.1500 -122.8500 270° West 220 253 3,700 -1,020 Descending Vancouver Center